createdAt,value
2022-09-14T00:01:45.663Z,1.60
2022-09-14T00:04:15.551Z,1.50
2022-09-14T00:06:46.904Z,2.30
2022-09-14T00:09:20.105Z,1.73
2022-09-14T00:11:51.234Z,1.80
2022-09-14T00:14:20.372Z,1.70
2022-09-14T00:16:50.789Z,1.67
2022-09-14T00:19:20.739Z,1.40
2022-09-14T00:22:00.288Z,1.63
2022-09-14T00:24:33.303Z,1.90
2022-09-14T00:27:04.239Z,1.70
2022-09-14T00:29:33.323Z,2.27
2022-09-14T00:32:03.022Z,1.63
2022-09-14T00:34:31.236Z,1.50
2022-09-14T00:37:02.223Z,1.57
2022-09-14T00:39:30.041Z,1.60
2022-09-14T00:41:57.845Z,1.50
2022-09-14T00:45:03.534Z,1.73
2022-09-14T00:47:40.885Z,1.73
2022-09-14T00:50:12.170Z,1.60
2022-09-14T00:52:45.631Z,2.10
2022-09-14T00:55:19.028Z,1.57
2022-09-14T00:57:49.102Z,1.73
2022-09-14T01:00:21.768Z,1.90
2022-09-14T01:02:51.273Z,1.30
2022-09-14T01:05:20.212Z,1.40
2022-09-14T01:08:15.865Z,1.40
2022-09-14T01:11:13.062Z,1.80
2022-09-14T01:13:50.910Z,2.27
2022-09-14T01:16:26.168Z,1.80
2022-09-14T01:18:58.870Z,2.00
2022-09-14T01:21:30.173Z,2.23
2022-09-14T01:24:03.780Z,1.90
2022-09-14T01:26:53.752Z,2.00
2022-09-14T01:29:32.130Z,2.20
2022-09-14T01:32:06.807Z,2.40
2022-09-14T01:34:53.558Z,2.67
2022-09-14T01:37:24.950Z,2.20
2022-09-14T01:39:56.486Z,2.13
2022-09-14T01:42:27.564Z,2.60
2022-09-14T01:45:02.174Z,2.33
2022-09-14T01:47:39.767Z,2.37
2022-09-14T01:50:18.883Z,1.83
2022-09-14T01:52:55.696Z,1.87
2022-09-14T01:55:30.705Z,2.10
2022-09-14T01:58:03.413Z,1.87
2022-09-14T02:00:35.613Z,1.80
2022-09-14T02:03:11.566Z,2.30
2022-09-14T02:05:47.051Z,2.33
2022-09-14T02:08:14.998Z,2.43
2022-09-14T02:10:43.446Z,2.53
2022-09-14T02:13:11.410Z,2.30
2022-09-14T02:15:54.982Z,1.80
2022-09-14T02:18:23.426Z,1.60
2022-09-14T02:20:55.538Z,1.93
2022-09-14T02:23:24.120Z,1.93
2022-09-14T02:25:55.757Z,2.20
2022-09-14T02:28:23.700Z,2.00
2022-09-14T02:31:10.659Z,2.13
2022-09-14T02:33:46.492Z,1.10
2022-09-14T02:36:23.926Z,2.10
2022-09-14T02:38:59.500Z,1.43
2022-09-14T02:41:39.679Z,1.40
2022-09-14T02:44:23.964Z,1.43
2022-09-14T02:47:04.159Z,1.63
2022-09-14T02:49:43.098Z,1.60
2022-09-14T02:52:16.604Z,1.90
2022-09-14T02:54:54.941Z,1.60
2022-09-14T02:57:31.384Z,1.70
2022-09-14T03:00:03.930Z,2.00
2022-09-14T03:02:33.195Z,1.60
2022-09-14T03:05:03.435Z,2.20
2022-09-14T03:07:31.371Z,2.00
2022-09-14T03:10:01.478Z,2.17
2022-09-14T03:12:29.380Z,1.80
2022-09-14T03:14:57.179Z,1.50
2022-09-14T03:17:25.040Z,1.60
2022-09-14T03:19:54.180Z,2.17
2022-09-14T03:22:21.982Z,1.50
2022-09-14T03:24:49.800Z,1.60
2022-09-14T03:27:17.625Z,1.37
2022-09-14T03:29:48.109Z,1.30
2022-09-14T03:32:18.361Z,1.40
2022-09-14T03:34:46.150Z,2.63
2022-09-14T03:37:15.277Z,1.37
2022-09-14T03:39:53.328Z,1.60
2022-09-14T03:42:21.108Z,1.70
2022-09-14T03:44:48.910Z,1.70
2022-09-14T03:47:16.718Z,1.70
2022-09-14T03:49:46.953Z,1.97
2022-09-14T03:52:16.151Z,1.93
2022-09-14T03:54:47.040Z,1.30
2022-09-14T03:57:14.881Z,1.70
2022-09-14T03:59:43.848Z,1.70
2022-09-14T04:02:13.991Z,2.53
2022-09-14T04:04:46.507Z,1.83
2022-09-14T04:07:15.867Z,2.10
2022-09-14T04:09:43.890Z,1.47
2022-09-14T04:12:13.940Z,2.87
2022-09-14T04:14:43.884Z,1.70
2022-09-14T04:17:11.696Z,2.17
2022-09-14T04:19:42.595Z,1.70
2022-09-14T04:22:13.447Z,3.00
2022-09-14T04:24:42.596Z,1.90
2022-09-14T04:27:12.889Z,2.70
2022-09-14T04:29:40.940Z,2.33
2022-09-14T04:32:09.033Z,1.87
2022-09-14T04:34:36.884Z,2.00
2022-09-14T04:37:04.786Z,2.00
2022-09-14T04:39:37.302Z,1.80
2022-09-14T04:42:07.333Z,2.20
2022-09-14T04:44:37.360Z,1.70
2022-09-14T04:47:08.254Z,2.17
2022-09-14T04:49:36.027Z,2.00
2022-09-14T04:52:09.037Z,2.07
2022-09-14T04:54:36.826Z,3.10
2022-09-14T04:57:12.003Z,2.50
2022-09-14T04:59:41.862Z,3.60
2022-09-14T05:02:09.692Z,3.10
2022-09-14T05:04:37.554Z,2.20
2022-09-14T05:07:08.370Z,2.40
2022-09-14T05:09:36.327Z,3.00
2022-09-14T05:12:10.670Z,2.70
2022-09-14T05:14:38.541Z,2.47
2022-09-14T05:17:06.711Z,3.40
2022-09-14T05:19:34.511Z,2.27
2022-09-14T05:22:09.795Z,2.63
2022-09-14T05:24:44.797Z,3.23
2022-09-14T05:27:16.023Z,3.87
2022-09-14T05:29:46.173Z,2.97
2022-09-14T05:32:16.399Z,2.03
2022-09-14T05:34:47.228Z,2.40
2022-09-14T05:37:15.200Z,2.17
2022-09-14T05:39:45.359Z,3.30
2022-09-14T05:42:14.624Z,2.10
2022-09-14T05:44:45.481Z,2.10
2022-09-14T05:47:13.327Z,1.90
2022-09-14T05:49:43.904Z,2.57
2022-09-14T05:52:11.714Z,2.70
2022-09-14T05:54:42.272Z,2.67
2022-09-14T05:57:16.063Z,2.30
2022-09-14T05:59:47.501Z,2.67
2022-09-14T06:02:18.007Z,2.00
2022-09-14T06:04:47.056Z,2.00
2022-09-14T06:07:18.894Z,1.83
2022-09-14T06:09:50.043Z,2.20
2022-09-14T06:12:18.626Z,2.73
2022-09-14T06:14:47.822Z,2.30
2022-09-14T06:17:15.677Z,1.90
2022-09-14T06:19:45.540Z,1.90
2022-09-14T06:22:13.366Z,2.30
2022-09-14T06:24:41.220Z,1.80
2022-09-14T06:27:10.083Z,2.30
2022-09-14T06:29:40.795Z,2.50
2022-09-14T06:32:20.812Z,2.20
2022-09-14T06:34:48.642Z,2.00
2022-09-14T06:37:19.301Z,2.63
2022-09-14T06:39:47.176Z,2.00
2022-09-14T06:42:15.386Z,2.50
2022-09-14T06:44:43.195Z,2.33
2022-09-14T06:47:14.598Z,2.43
2022-09-14T06:49:42.427Z,3.17
2022-09-14T06:52:10.330Z,2.43
2022-09-14T06:54:40.935Z,2.50
2022-09-14T06:57:08.844Z,2.57
2022-09-14T06:59:36.735Z,2.47
2022-09-14T07:02:04.758Z,2.67
2022-09-14T07:04:53.666Z,2.90
2022-09-14T07:07:21.532Z,3.80
2022-09-14T07:09:52.291Z,3.93
2022-09-14T07:12:29.619Z,4.00
2022-09-14T07:15:00.339Z,3.17
2022-09-14T07:17:28.194Z,4.00
2022-09-14T07:19:57.423Z,3.40
2022-09-14T07:22:25.456Z,3.37
2022-09-14T07:24:53.312Z,3.83
2022-09-14T07:27:21.161Z,3.23
2022-09-14T07:29:51.871Z,3.20
2022-09-14T07:32:22.143Z,2.97
2022-09-14T07:34:53.124Z,3.03
2022-09-14T07:37:27.919Z,2.50
2022-09-14T07:40:01.444Z,2.80
2022-09-14T07:42:29.386Z,2.83
2022-09-14T07:44:57.258Z,2.80
2022-09-14T07:47:25.201Z,2.80
2022-09-14T07:52:48.093Z,3.00
2022-09-14T07:55:24.408Z,2.60
2022-09-14T07:57:56.549Z,2.53
2022-09-14T08:00:25.549Z,3.20
2022-09-14T08:02:57.962Z,2.70
2022-09-14T08:05:28.787Z,2.60
2022-09-14T08:07:58.083Z,2.50
2022-09-14T08:10:36.547Z,2.10
2022-09-14T08:13:06.411Z,2.00
2022-09-14T08:15:36.375Z,2.60
2022-09-14T08:18:04.369Z,2.83
2022-09-14T08:20:41.164Z,2.60
2022-09-14T08:23:11.077Z,2.10
2022-09-14T08:25:43.854Z,2.57
2022-09-14T08:28:11.744Z,1.93
2022-09-14T08:30:49.211Z,2.67
2022-09-14T08:33:17.217Z,2.97
2022-09-14T08:36:00.608Z,2.90
2022-09-14T08:38:32.134Z,3.23
2022-09-14T08:41:10.238Z,2.50
2022-09-14T08:43:40.287Z,2.73
2022-09-14T08:46:28.562Z,4.03
2022-09-14T08:49:01.373Z,2.90
2022-09-14T08:51:30.484Z,3.03
2022-09-14T08:54:05.539Z,2.77
2022-09-14T08:56:34.985Z,3.00
2022-09-14T08:59:25.418Z,2.30
2022-09-14T09:02:03.551Z,3.10
2022-09-14T09:04:45.074Z,2.67
2022-09-14T09:07:20.084Z,2.03
2022-09-14T09:09:52.285Z,2.17
2022-09-14T09:12:22.474Z,1.50
2022-09-14T09:14:56.193Z,1.60
2022-09-14T09:17:30.389Z,2.00
2022-09-14T09:20:07.317Z,1.90
2022-09-14T09:22:42.272Z,1.60
2022-09-14T09:25:24.026Z,1.70
2022-09-14T09:27:55.502Z,1.83
2022-09-14T09:30:28.471Z,2.40
2022-09-14T09:32:58.784Z,1.60
2022-09-14T09:35:26.847Z,1.70
2022-09-14T09:37:54.717Z,1.90
2022-09-14T09:40:39.631Z,1.80
2022-09-14T09:43:11.888Z,1.93
2022-09-14T09:46:00.300Z,1.77
2022-09-14T09:48:32.194Z,1.67
2022-09-14T09:51:06.853Z,2.23
2022-09-14T09:53:37.835Z,1.30
2022-09-14T09:56:07.823Z,1.43
2022-09-14T09:58:38.557Z,1.80
2022-09-14T10:01:21.297Z,2.07
2022-09-14T10:04:03.321Z,1.77
2022-09-14T10:06:32.007Z,1.50
2022-09-14T10:09:02.922Z,2.00
2022-09-14T10:11:36.588Z,1.40
2022-09-14T10:14:13.134Z,4.70
2022-09-14T10:16:42.043Z,1.90
2022-09-14T10:19:15.381Z,1.80
2022-09-14T10:22:03.232Z,2.23
2022-09-14T10:24:32.918Z,1.90
2022-09-14T10:27:02.158Z,1.70
2022-09-14T10:29:38.854Z,1.77
2022-09-14T10:32:17.989Z,2.10
2022-09-14T10:34:46.115Z,1.57
2022-09-14T10:37:33.671Z,1.90
2022-09-14T10:40:16.253Z,2.40
2022-09-14T10:43:01.960Z,2.77
2022-09-14T10:45:33.486Z,2.63
2022-09-14T10:48:25.878Z,1.87
2022-09-14T10:51:05.542Z,1.50
2022-09-14T10:53:52.358Z,1.97
2022-09-14T10:56:31.285Z,1.50
2022-09-14T10:59:23.207Z,2.00
2022-09-14T11:02:34.988Z,2.07
2022-09-14T11:05:13.797Z,2.33
2022-09-14T11:07:55.683Z,1.73
2022-09-14T11:10:37.747Z,2.07
2022-09-14T11:13:45.278Z,2.33
2022-09-14T11:16:27.569Z,2.50
2022-09-14T11:19:06.815Z,1.90
2022-09-14T11:21:47.033Z,1.80
2022-09-14T11:24:24.761Z,1.47
2022-09-14T11:27:01.363Z,2.50
2022-09-14T11:29:33.366Z,1.70
2022-09-14T11:32:20.877Z,1.60
2022-09-14T11:34:54.881Z,1.40
2022-09-14T11:37:30.557Z,1.53
2022-09-14T11:40:08.080Z,1.30
2022-09-14T11:42:41.924Z,1.30
2022-09-14T11:45:19.622Z,1.03
2022-09-14T11:48:00.921Z,1.40
2022-09-14T11:50:31.467Z,1.30
2022-09-14T11:53:11.685Z,1.37
2022-09-14T11:55:47.533Z,1.30
2022-09-14T11:58:20.753Z,1.60
2022-09-14T12:01:08.713Z,1.13
2022-09-14T12:04:09.154Z,1.50
2022-09-14T12:07:02.180Z,1.30
2022-09-14T12:09:45.996Z,1.70
2022-09-14T12:12:37.645Z,1.40
2022-09-14T12:15:23.078Z,1.30
2022-09-14T12:17:52.046Z,1.50
2022-09-14T12:20:43.489Z,1.47
2022-09-14T12:23:26.850Z,1.83
2022-09-14T12:26:00.078Z,1.60
2022-09-14T12:28:48.260Z,1.30
2022-09-14T12:31:36.729Z,1.60
2022-09-14T12:34:25.290Z,1.30
2022-09-14T12:37:29.660Z,1.93
2022-09-14T12:40:33.769Z,1.77
2022-09-14T12:43:48.087Z,1.50
2022-09-14T12:46:40.194Z,1.63
2022-09-14T12:49:33.161Z,1.90
2022-09-14T12:52:11.356Z,1.70
2022-09-14T12:54:56.133Z,2.00
2022-09-14T12:57:34.863Z,2.00
2022-09-14T13:00:14.170Z,1.93
2022-09-14T13:03:04.618Z,2.20
2022-09-14T13:05:34.757Z,1.80
2022-09-14T13:08:11.117Z,1.73
2022-09-14T13:10:41.605Z,1.77
2022-09-14T13:13:24.162Z,2.20
2022-09-14T13:15:57.177Z,1.70
2022-09-14T13:18:33.806Z,2.13
2022-09-14T13:21:10.742Z,1.90
2022-09-14T13:23:44.342Z,1.87
2022-09-14T13:26:24.074Z,2.10
2022-09-14T13:29:05.635Z,1.77
2022-09-14T13:31:50.080Z,2.37
2022-09-14T13:34:23.654Z,1.97
2022-09-14T13:36:51.950Z,1.80
2022-09-14T13:39:28.978Z,2.10
2022-09-14T13:41:59.823Z,2.13
2022-09-14T13:44:34.103Z,2.20
2022-09-14T13:47:04.531Z,2.13
2022-09-14T13:49:34.948Z,2.30
2022-09-14T13:52:57.163Z,1.97
2022-09-14T13:55:23.447Z,2.40
2022-09-14T13:58:35.485Z,1.90
2022-09-14T14:01:07.576Z,2.20
2022-09-14T14:03:38.553Z,2.10
2022-09-14T14:06:24.966Z,2.10
2022-09-14T14:08:58.857Z,3.10
2022-09-14T14:11:36.094Z,2.13
2022-09-14T14:14:19.713Z,2.50
2022-09-14T14:17:22.098Z,1.57
2022-09-14T14:19:53.486Z,1.80
2022-09-14T14:22:27.991Z,2.60
2022-09-14T14:25:14.401Z,2.53
2022-09-14T14:27:44.784Z,2.40
2022-09-14T14:30:16.195Z,2.20
2022-09-14T14:32:49.989Z,1.87
2022-09-14T14:35:22.210Z,2.33
2022-09-14T14:37:50.810Z,2.77
2022-09-14T14:40:19.742Z,2.20
2022-09-14T14:42:51.097Z,2.23
2022-09-14T14:45:21.910Z,1.80
2022-09-14T14:47:51.472Z,1.63
2022-09-14T14:50:21.925Z,3.13
2022-09-14T14:52:50.192Z,2.90
2022-09-14T14:55:19.785Z,2.37
2022-09-14T14:57:49.730Z,1.70
2022-09-14T15:00:20.471Z,2.17
2022-09-14T15:02:48.343Z,2.03
2022-09-14T15:05:18.709Z,2.60
2022-09-14T15:07:47.542Z,1.80
2022-09-14T15:10:17.159Z,2.17
2022-09-14T15:12:45.521Z,2.33
2022-09-14T15:15:14.749Z,1.80
2022-09-14T15:17:43.232Z,2.13
2022-09-14T15:20:14.853Z,3.20
2022-09-14T15:22:46.441Z,3.20
2022-09-14T15:25:21.247Z,2.60
2022-09-14T15:27:49.207Z,2.90
2022-09-14T15:30:17.300Z,2.70
2022-09-14T15:32:45.291Z,3.43
2022-09-14T15:35:17.079Z,2.60
2022-09-14T15:37:47.900Z,2.50
2022-09-14T15:40:16.016Z,2.20
2022-09-14T15:42:43.945Z,2.97
2022-09-14T15:45:12.110Z,2.33
2022-09-14T15:47:43.600Z,4.13
2022-09-14T15:50:14.870Z,3.40
2022-09-14T15:52:43.087Z,4.00
2022-09-14T15:55:15.114Z,4.20
2022-09-14T15:57:53.304Z,4.87
2022-09-14T16:00:21.283Z,5.23
2022-09-14T16:02:52.023Z,4.60
2022-09-14T16:05:22.134Z,3.30
2022-09-14T16:07:53.448Z,2.90
2022-09-14T16:10:25.431Z,2.70
2022-09-14T16:12:56.420Z,3.00
2022-09-14T16:15:27.044Z,3.10
2022-09-14T16:18:03.212Z,2.80
2022-09-14T16:20:31.086Z,2.53
2022-09-14T16:22:58.932Z,2.17
2022-09-14T16:25:28.167Z,2.23
2022-09-14T16:27:55.984Z,3.00
2022-09-14T16:30:23.871Z,2.90
2022-09-14T16:32:53.838Z,2.67
2022-09-14T16:35:21.675Z,2.93
2022-09-14T16:37:49.496Z,2.30
2022-09-14T16:40:19.852Z,2.90
2022-09-14T16:42:49.212Z,3.60
2022-09-14T16:45:17.181Z,2.67
2022-09-14T16:47:45.435Z,3.37
2022-09-14T16:50:13.309Z,3.17
2022-09-14T16:52:41.130Z,3.37
2022-09-14T16:55:11.472Z,4.03
2022-09-14T16:57:39.280Z,3.50
2022-09-14T17:00:14.847Z,4.33
2022-09-14T17:02:42.826Z,4.10
2022-09-14T17:05:10.919Z,5.10
2022-09-14T17:07:38.726Z,5.27
2022-09-14T17:10:07.214Z,5.13
2022-09-14T17:12:42.126Z,5.83
2022-09-14T17:15:12.173Z,5.90
2022-09-14T17:17:40.035Z,6.67
2022-09-14T17:20:08.438Z,7.13
2022-09-14T17:22:36.644Z,7.10
2022-09-14T17:25:14.872Z,7.23
2022-09-14T17:27:44.715Z,7.20
2022-09-14T17:30:15.106Z,8.07
2022-09-14T17:32:42.877Z,9.67
2022-09-14T17:35:10.982Z,9.50
2022-09-14T17:37:38.780Z,10.67
2022-09-14T17:40:08.952Z,9.43
2022-09-14T17:42:36.858Z,11.80
2022-09-14T17:45:06.419Z,11.53
2022-09-14T17:47:37.320Z,12.60
2022-09-14T17:50:07.708Z,11.93
2022-09-14T17:52:35.807Z,12.40
2022-09-14T17:55:03.652Z,11.87
2022-09-14T17:57:31.474Z,12.40
2022-09-14T18:00:02.774Z,12.27
2022-09-14T18:02:32.998Z,11.23
2022-09-14T18:05:02.250Z,10.47
2022-09-14T18:07:30.908Z,10.47
2022-09-14T18:09:59.136Z,11.00
2022-09-14T18:12:27.361Z,9.17
2022-09-14T18:14:58.178Z,9.87
2022-09-14T18:17:26.044Z,10.53
2022-09-14T18:19:58.239Z,11.10
2022-09-14T18:22:34.964Z,10.07
2022-09-14T18:25:10.635Z,9.80
2022-09-14T18:27:38.448Z,8.93
2022-09-14T18:30:07.599Z,9.30
2022-09-14T18:32:35.868Z,9.37
2022-09-14T18:35:06.223Z,8.30
2022-09-14T18:37:35.341Z,9.00
2022-09-14T18:40:03.827Z,9.03
2022-09-14T18:42:31.626Z,8.67
2022-09-14T18:44:59.464Z,9.20
2022-09-14T18:47:27.331Z,8.80
2022-09-14T18:49:55.312Z,8.87
2022-09-14T18:52:32.940Z,8.20
2022-09-14T18:55:05.392Z,7.17
2022-09-14T18:57:33.170Z,7.30
2022-09-14T19:00:00.980Z,7.10
2022-09-14T19:02:31.144Z,6.80
2022-09-14T19:05:02.047Z,5.93
2022-09-14T19:07:32.145Z,7.67
2022-09-14T19:10:00.362Z,8.27
2022-09-14T19:12:45.902Z,6.70
2022-09-14T19:15:16.403Z,8.43
2022-09-14T19:17:44.257Z,7.43
2022-09-14T19:20:12.218Z,6.53
2022-09-14T19:22:40.042Z,6.33
2022-09-14T19:25:08.728Z,6.77
2022-09-14T19:27:40.823Z,6.23
2022-09-14T19:30:10.196Z,8.57
2022-09-14T19:32:40.363Z,6.57
2022-09-14T19:35:08.872Z,6.67
2022-09-14T19:37:36.866Z,6.87
2022-09-14T19:40:05.116Z,7.00
2022-09-14T19:42:49.862Z,8.13
2022-09-14T19:45:18.270Z,6.73
2022-09-14T19:47:51.044Z,7.97
2022-09-14T19:50:18.949Z,8.00
2022-09-14T19:52:46.797Z,8.20
2022-09-14T19:55:14.598Z,7.97
2022-09-14T19:57:46.044Z,7.03
2022-09-14T20:00:18.139Z,7.40
2022-09-14T20:03:00.314Z,8.40
2022-09-14T20:05:28.144Z,6.50
2022-09-14T20:07:56.299Z,8.10
2022-09-14T20:10:24.182Z,8.30
2022-09-14T20:12:58.524Z,7.53
2022-09-14T20:15:26.360Z,7.43
2022-09-14T20:17:55.695Z,8.43
2022-09-14T20:20:31.882Z,7.20
2022-09-14T20:22:59.726Z,8.13
2022-09-14T20:25:37.407Z,7.30
2022-09-14T20:28:09.081Z,7.20
2022-09-14T20:30:39.470Z,8.20
2022-09-14T20:33:07.229Z,7.87
2022-09-14T20:35:37.403Z,8.10
2022-09-14T20:38:05.278Z,8.13
2022-09-14T20:40:35.928Z,8.40
2022-09-14T20:43:03.753Z,10.20
2022-09-14T20:45:32.936Z,8.73
2022-09-14T20:48:00.711Z,9.37
2022-09-14T20:50:28.506Z,9.03
2022-09-14T20:52:58.362Z,9.30
2022-09-14T20:55:33.058Z,8.50
2022-09-14T20:58:00.853Z,8.10
2022-09-14T21:00:28.682Z,9.57
2022-09-14T21:02:58.433Z,9.00
2022-09-14T21:05:26.251Z,8.53
2022-09-14T21:07:56.417Z,8.13
2022-09-14T21:10:28.657Z,8.20
2022-09-14T21:12:57.305Z,8.57
2022-09-14T21:15:25.093Z,8.57
2022-09-14T21:17:52.956Z,9.47
2022-09-14T21:20:22.124Z,9.20
2022-09-14T21:22:49.893Z,9.83
2022-09-14T21:25:17.895Z,9.80
2022-09-14T21:27:53.052Z,10.27
2022-09-14T21:30:25.582Z,10.60
2022-09-14T21:32:53.439Z,10.10
2022-09-14T21:35:22.568Z,10.17
2022-09-14T21:37:51.930Z,12.00
2022-09-14T21:40:22.154Z,11.20
2022-09-14T21:42:52.153Z,10.80
2022-09-14T21:45:24.770Z,10.67
2022-09-14T21:47:54.686Z,10.10
2022-09-14T21:50:26.298Z,9.57
2022-09-14T21:52:54.086Z,9.47
2022-09-14T21:55:21.869Z,9.33
2022-09-14T21:57:52.187Z,10.80
2022-09-14T22:00:20.692Z,11.80
2022-09-14T22:02:50.830Z,12.93
2022-09-14T22:05:18.695Z,13.70
2022-09-14T22:07:55.563Z,14.80
2022-09-14T22:10:23.410Z,12.40
2022-09-14T22:12:51.227Z,12.33
2022-09-14T22:15:19.025Z,12.30
2022-09-14T22:17:48.627Z,12.80
2022-09-14T22:20:18.553Z,11.63
2022-09-14T22:22:47.703Z,10.97
2022-09-14T22:25:15.897Z,12.70
2022-09-14T22:27:43.685Z,13.00
2022-09-14T22:30:12.508Z,15.37
2022-09-14T22:32:42.368Z,13.93
2022-09-14T22:35:13.341Z,12.27
2022-09-14T22:37:47.006Z,14.30
2022-09-14T22:40:16.436Z,13.97
2022-09-14T22:42:47.118Z,13.83
2022-09-14T22:45:15.063Z,13.70
2022-09-14T22:50:32.141Z,14.83
2022-09-14T22:53:00.025Z,13.00
2022-09-14T22:55:29.156Z,12.30
2022-09-14T22:58:04.369Z,11.87
2022-09-14T23:00:32.536Z,12.97
2022-09-14T23:03:00.537Z,12.10
2022-09-14T23:05:28.427Z,12.70
2022-09-14T23:08:03.583Z,11.60
2022-09-14T23:10:35.155Z,13.80
2022-09-14T23:13:03.027Z,14.50
2022-09-14T23:15:30.900Z,11.90
2022-09-14T23:18:01.126Z,14.60
2022-09-14T23:20:29.113Z,14.00
2022-09-14T23:23:08.274Z,14.33
2022-09-14T23:25:41.264Z,16.57
2022-09-14T23:28:12.499Z,15.30
2022-09-14T23:30:43.006Z,15.80
2022-09-14T23:33:10.842Z,14.47
2022-09-14T23:35:38.738Z,14.10
2022-09-14T23:38:06.602Z,16.10
2022-09-14T23:40:34.432Z,14.27
2022-09-14T23:43:07.169Z,14.67
2022-09-14T23:45:37.412Z,14.13
2022-09-14T23:48:05.408Z,14.60
2022-09-14T23:50:33.765Z,16.13
2022-09-14T23:55:43.412Z,15.93
2022-09-14T23:58:14.795Z,16.60
